Terminal Aerodrome Forecast
Issued by NWS

Home | Current Version | Previous Version | Graphics & Text | Print | Product List | Glossary On
Versions: 1 2 3 4 5 6 7 8 9 10 11 12 13 14 15 16 17 18 19 20 21 22
000
FTUS43 KTOP 011100
TAFMHK
TAF
KMHK 011120Z 0112/0212 23007KT P6SM FEW012 SCT080
     FM011500 31007KT P6SM SCT015 BKN025
     FM011900 02007KT P6SM SCT030 BKN090
     FM020200 03004KT P6SM SCT015 BKN150=

USA.gov is the U.S. government's official web portal to all federal, state and local government web resources and services.